Startpagina
METAR-TAF:

METAR-TAF

Vliegvelden :

Aeropuerto Internacional de Maiquetía Simón Bolívar

Caracas, Venezuela

breedte: 10-36N, lengte: 066-59W, hoogte: 43 m

METAR: ontbreekt

Tijdstip: 22:12 (02:12 UTC)

Verwachting

Dit bericht is 16 uur en het 12 minuten geleden gemaakt, om 10:00 UTC
Verwachting geldig van 17 om 12 UTC tot 18 om 12 UTC
Wind kt uit het noorden
Zicht 10 km of meer
Weinig wolken op 1600 ft
Van 17 om 1400 UTC
Wind 6 kt uit het noordoosten
Zicht 10 km of meer
Weinig wolken op 1600 ft
Verspreide wolken op 10000 ft
Wijzigt naar
van 17 om 20 UTC tot 18 om 00 UTC
Wind 12 kt uit het noordoosten
Verspreide wolken op 1600 ft

TAF: SVMI 171000Z 1712/1812 00000KT 9999 FEW016 TX33/18Z TN26/08Z FM171400 05006KT 9999 FEW016 SCT100 BECMG 1720/1800 05012KT SCT016

Waarnemingen en weersverwachtingen van meer dan 4000 vliegvelden (METAR en TAF).

De beschikbare stations zijn de gele en rode punten op de kaart.

Ga met uw muis naar het station om de naam te zien.

Klik dan om waarnemingen en weersverwachtingen te zien.

kaart wijzigen: klik op de groene knoppen met een zwart kruis om in te zoomen, op de groene knop met een streepje om uit te zoomen of op de groene pijlen voor aangrenzende kaarten.


METAR-TAF: